createdAt,value
2018-08-12T00:01:23.218Z,52.60
2018-08-12T00:03:49.692Z,52.60
2018-08-12T00:06:16.142Z,52.70
2018-08-12T00:08:44.263Z,52.70
2018-08-12T00:11:10.748Z,52.70
2018-08-12T00:13:37.189Z,52.70
2018-08-12T00:16:03.669Z,53.30
2018-08-12T00:18:30.129Z,52.60
2018-08-12T00:20:56.625Z,52.70
2018-08-12T00:23:23.087Z,52.70
2018-08-12T00:25:49.535Z,52.60
2018-08-12T00:28:16.007Z,52.70
2018-08-12T00:30:42.453Z,53.00
2018-08-12T00:33:08.938Z,52.70
2018-08-12T00:35:35.393Z,52.70
2018-08-12T00:38:01.925Z,52.70
2018-08-12T00:40:28.377Z,52.70
2018-08-12T00:42:54.818Z,52.70
2018-08-12T00:45:21.302Z,52.70
2018-08-12T00:47:48.298Z,52.70
2018-08-12T00:50:15.520Z,52.70
2018-08-12T00:52:41.960Z,52.70
2018-08-12T00:55:08.637Z,52.70
2018-08-12T00:57:35.703Z,52.70
2018-08-12T01:00:02.146Z,52.70
2018-08-12T01:02:28.641Z,52.70
2018-08-12T01:04:55.096Z,52.70
2018-08-12T01:07:21.543Z,52.70
2018-08-12T01:09:47.996Z,52.70
2018-08-12T01:12:14.481Z,52.70
2018-08-12T01:14:41.485Z,52.70
2018-08-12T01:17:07.908Z,52.80
2018-08-12T01:19:34.393Z,52.70
2018-08-12T01:22:00.874Z,52.70
2018-08-12T01:24:27.308Z,52.70
2018-08-12T01:26:53.771Z,52.70
2018-08-12T01:29:20.225Z,52.60
2018-08-12T01:31:46.674Z,52.70
2018-08-12T01:34:13.152Z,52.70
2018-08-12T01:36:39.675Z,52.70
2018-08-12T01:39:06.165Z,52.80
2018-08-12T01:41:32.648Z,52.60
2018-08-12T01:43:59.743Z,52.70
2018-08-12T01:46:26.277Z,52.70
2018-08-12T01:48:52.841Z,52.60
2018-08-12T01:51:19.307Z,52.60
2018-08-12T01:53:45.790Z,52.70
2018-08-12T01:56:12.270Z,52.70
2018-08-12T01:58:38.720Z,52.60
2018-08-12T02:01:05.182Z,52.60
2018-08-12T02:03:31.656Z,53.30
2018-08-12T02:05:58.159Z,52.60
2018-08-12T02:08:24.637Z,52.70
2018-08-12T02:10:51.152Z,52.60
2018-08-12T02:13:17.653Z,52.60
2018-08-12T02:15:44.114Z,52.60
2018-08-12T02:18:10.566Z,52.60
2018-08-12T02:20:36.986Z,52.60
2018-08-12T02:23:03.458Z,52.60
2018-08-12T02:25:29.975Z,52.70
2018-08-12T02:27:56.422Z,52.60
2018-08-12T02:30:22.957Z,52.20
2018-08-12T02:32:49.417Z,52.70
2018-08-12T02:35:15.889Z,52.70
2018-08-12T02:37:42.348Z,52.60
2018-08-12T02:40:09.438Z,52.60
2018-08-12T02:42:35.919Z,52.70
2018-08-12T02:45:02.397Z,52.70
2018-08-12T02:47:29.146Z,52.60
2018-08-12T02:50:03.692Z,52.30
2018-08-12T02:52:30.180Z,52.70
2018-08-12T02:54:56.626Z,52.60
2018-08-12T02:57:23.110Z,52.70
2018-08-12T02:59:49.597Z,52.60
2018-08-12T03:02:16.161Z,52.60
2018-08-12T03:04:42.630Z,52.70
2018-08-12T03:07:09.131Z,52.60
2018-08-12T03:09:35.579Z,52.60
2018-08-12T03:12:02.041Z,52.60
2018-08-12T03:14:28.526Z,52.50
2018-08-12T03:16:55.071Z,52.60
2018-08-12T03:19:21.558Z,52.60
2018-08-12T03:21:48.034Z,52.60
2018-08-12T03:24:14.534Z,52.60
2018-08-12T03:26:41.028Z,52.60
2018-08-12T03:29:07.495Z,52.60
2018-08-12T03:31:34.002Z,52.70
2018-08-12T03:34:00.444Z,52.60
2018-08-12T03:36:26.868Z,52.60
2018-08-12T03:38:54.282Z,52.60
2018-08-12T03:41:20.914Z,52.60
2018-08-12T03:43:47.487Z,52.60
2018-08-12T03:46:13.936Z,52.60
2018-08-12T03:48:40.426Z,52.50
2018-08-12T03:51:06.890Z,52.60
2018-08-12T03:53:33.654Z,52.70
2018-08-12T03:56:00.120Z,52.60
2018-08-12T03:58:26.547Z,52.70
2018-08-12T04:00:53.060Z,52.60
2018-08-12T04:03:19.510Z,52.60
2018-08-12T04:05:45.968Z,52.60
2018-08-12T04:08:12.538Z,53.30
2018-08-12T04:10:38.986Z,52.60
2018-08-12T04:13:05.444Z,52.60
2018-08-12T04:15:31.878Z,52.70
2018-08-12T04:17:58.336Z,52.70
2018-08-12T04:20:24.800Z,52.60
2018-08-12T04:22:51.251Z,52.70
2018-08-12T04:25:17.766Z,52.60
2018-08-12T04:27:44.844Z,52.60
2018-08-12T04:30:11.372Z,52.60
2018-08-12T04:32:37.817Z,53.30
2018-08-12T04:35:04.449Z,52.60
2018-08-12T04:37:30.935Z,52.70
2018-08-12T04:39:57.362Z,52.60
2018-08-12T04:42:23.835Z,52.60
2018-08-12T04:44:50.307Z,52.60
2018-08-12T04:47:16.821Z,52.70
2018-08-12T04:49:43.323Z,52.70
2018-08-12T04:52:09.777Z,52.60
2018-08-12T04:54:36.237Z,52.50
2018-08-12T04:57:02.663Z,52.60
2018-08-12T04:59:29.110Z,52.60
2018-08-12T05:01:55.567Z,52.60
2018-08-12T05:04:22.060Z,52.60
2018-08-12T05:06:48.529Z,52.60
2018-08-12T05:09:15.012Z,52.50
2018-08-12T05:11:41.456Z,52.50
2018-08-12T05:14:08.159Z,52.50
2018-08-12T05:16:34.625Z,53.20
2018-08-12T05:19:01.828Z,52.50
2018-08-12T05:21:28.273Z,52.60
2018-08-12T05:23:54.703Z,52.60
2018-08-12T05:26:21.151Z,52.20
2018-08-12T05:28:48.172Z,52.10
2018-08-12T05:31:14.641Z,52.60
2018-08-12T05:33:41.211Z,52.60
2018-08-12T05:36:07.720Z,52.60
2018-08-12T05:38:34.183Z,52.60
2018-08-12T05:41:00.698Z,52.60
2018-08-12T05:43:27.133Z,52.60
2018-08-12T05:45:53.637Z,52.60
2018-08-12T05:48:20.085Z,52.70
2018-08-12T05:50:46.589Z,52.60
2018-08-12T05:53:13.021Z,52.60
2018-08-12T05:55:39.534Z,52.50
2018-08-12T05:58:06.015Z,52.50
2018-08-12T06:00:32.478Z,52.60
2018-08-12T06:02:58.973Z,52.60
2018-08-12T06:05:25.426Z,52.60
2018-08-12T06:07:51.881Z,52.60
2018-08-12T06:10:18.892Z,52.60
2018-08-12T06:12:45.453Z,52.60
2018-08-12T06:15:11.920Z,52.60
2018-08-12T06:17:38.427Z,52.60
2018-08-12T06:20:04.933Z,52.70
2018-08-12T06:22:31.409Z,52.70
2018-08-12T06:24:57.870Z,52.70
2018-08-12T06:27:24.345Z,52.70
2018-08-12T06:29:50.839Z,52.60
2018-08-12T06:32:17.311Z,52.60
2018-08-12T06:34:43.779Z,52.60
2018-08-12T06:37:10.535Z,52.70
2018-08-12T06:39:37.037Z,53.20
2018-08-12T06:42:03.505Z,52.70
2018-08-12T06:44:30.007Z,52.60
2018-08-12T06:46:56.492Z,52.60
2018-08-12T06:49:22.998Z,52.60
2018-08-12T06:51:49.511Z,52.60
2018-08-12T06:54:15.959Z,52.70
2018-08-12T06:56:42.420Z,52.60
2018-08-12T06:59:08.867Z,52.70
2018-08-12T07:01:35.329Z,52.60
2018-08-12T07:04:01.778Z,52.60
2018-08-12T07:06:28.222Z,52.70
2018-08-12T07:08:54.763Z,52.60
2018-08-12T07:11:21.232Z,52.50
2018-08-12T07:13:47.709Z,52.60
2018-08-12T07:16:14.225Z,52.70
2018-08-12T07:18:41.578Z,52.70
2018-08-12T07:21:08.104Z,52.70
2018-08-12T07:23:34.729Z,53.00
2018-08-12T07:26:01.197Z,52.60
2018-08-12T07:28:27.716Z,52.60
2018-08-12T07:30:54.205Z,52.70
2018-08-12T07:33:20.812Z,52.60
2018-08-12T07:35:47.325Z,52.60
2018-08-12T07:38:13.834Z,52.70
2018-08-12T07:40:40.312Z,53.20
2018-08-12T07:43:06.865Z,52.60
2018-08-12T07:45:33.400Z,52.60
2018-08-12T07:47:59.920Z,52.60
2018-08-12T07:50:27.388Z,52.60
2018-08-12T07:52:53.886Z,52.50
2018-08-12T07:55:20.461Z,52.60
2018-08-12T07:57:47.024Z,52.50
2018-08-12T08:00:14.789Z,52.50
2018-08-12T08:02:41.356Z,52.50
2018-08-12T08:05:07.838Z,52.50
2018-08-12T08:07:34.976Z,52.50
2018-08-12T08:10:01.462Z,52.40
2018-08-12T08:12:27.982Z,52.40
2018-08-12T08:14:54.504Z,52.30
2018-08-12T08:17:20.958Z,52.40
2018-08-12T08:19:47.526Z,52.50
2018-08-12T08:22:14.024Z,52.50
2018-08-12T08:24:40.506Z,51.80
2018-08-12T08:27:07.020Z,52.50
2018-08-12T08:29:33.478Z,52.50
2018-08-12T08:32:00.266Z,52.40
2018-08-12T08:34:26.588Z,52.40
2018-08-12T08:36:53.050Z,52.50
2018-08-12T08:39:19.511Z,52.50
2018-08-12T08:41:45.982Z,52.50
2018-08-12T08:44:12.570Z,52.40
2018-08-12T08:46:39.414Z,52.50
2018-08-12T08:49:05.896Z,52.50
2018-08-12T08:51:32.491Z,52.50
2018-08-12T08:53:59.460Z,52.40
2018-08-12T08:56:26.506Z,52.40
2018-08-12T08:58:52.960Z,52.40
2018-08-12T09:01:19.500Z,52.40
2018-08-12T09:03:45.918Z,52.30
2018-08-12T09:06:12.432Z,52.30
2018-08-12T09:08:39.219Z,52.30
2018-08-12T09:11:05.394Z,52.30
2018-08-12T09:13:31.829Z,52.20
2018-08-12T09:15:58.283Z,52.20
2018-08-12T09:18:24.745Z,52.20
2018-08-12T09:20:51.228Z,52.20
2018-08-12T09:23:17.732Z,52.20
2018-08-12T09:25:44.199Z,52.20
2018-08-12T09:28:10.645Z,52.20
2018-08-12T09:30:37.091Z,52.50
2018-08-12T09:33:03.689Z,52.10
2018-08-12T09:35:30.153Z,52.10
2018-08-12T09:37:56.639Z,52.00
2018-08-12T09:40:23.101Z,52.10
2018-08-12T09:42:49.571Z,52.00
2018-08-12T09:45:16.947Z,52.10
2018-08-12T09:47:43.484Z,52.10
2018-08-12T09:50:10.226Z,52.00
2018-08-12T09:52:37.159Z,52.00
2018-08-12T09:55:03.984Z,51.90
2018-08-12T09:57:30.465Z,52.00
2018-08-12T09:59:57.088Z,52.00
2018-08-12T10:02:23.488Z,51.90
2018-08-12T10:04:49.937Z,52.10
2018-08-12T10:07:16.377Z,51.90
2018-08-12T10:09:42.814Z,51.90
2018-08-12T10:12:09.373Z,51.20
2018-08-12T10:14:35.863Z,52.50
2018-08-12T10:17:02.487Z,51.90
2018-08-12T10:19:28.956Z,51.90
2018-08-12T10:21:56.049Z,51.90
2018-08-12T10:24:22.507Z,52.00
2018-08-12T10:26:48.951Z,51.90
2018-08-12T10:29:15.968Z,52.00
2018-08-12T10:31:42.404Z,52.00
2018-08-12T10:34:08.869Z,52.00
2018-08-12T10:36:35.360Z,52.00
2018-08-12T10:39:07.878Z,52.00
2018-08-12T10:41:34.321Z,52.00
2018-08-12T10:44:02.182Z,52.00
2018-08-12T10:46:28.655Z,51.90
2018-08-12T10:48:55.950Z,52.00
2018-08-12T10:51:22.524Z,52.00
2018-08-12T10:53:49.079Z,51.90
2018-08-12T10:56:15.619Z,51.90
2018-08-12T10:58:42.143Z,51.90
2018-08-12T11:01:08.671Z,51.90
2018-08-12T11:03:35.193Z,51.90
2018-08-12T11:06:01.719Z,51.90
2018-08-12T11:08:28.230Z,51.80
2018-08-12T11:10:54.805Z,51.70
2018-08-12T11:13:21.313Z,51.80
2018-08-12T11:15:47.848Z,51.90
2018-08-12T11:18:14.317Z,51.80
2018-08-12T11:20:40.809Z,51.80
2018-08-12T11:23:07.275Z,52.00
2018-08-12T11:25:33.840Z,52.40
2018-08-12T11:28:00.296Z,51.80
2018-08-12T11:30:26.759Z,51.80
2018-08-12T11:32:53.255Z,51.80
2018-08-12T11:35:19.747Z,51.90
2018-08-12T11:37:46.540Z,51.80
2018-08-12T11:40:13.290Z,51.80
2018-08-12T11:42:39.738Z,51.90
2018-08-12T11:45:06.233Z,51.80
2018-08-12T11:47:32.844Z,51.70
2018-08-12T11:50:05.538Z,51.70
2018-08-12T11:52:32.007Z,51.80
2018-08-12T11:54:58.516Z,52.30
2018-08-12T11:57:25.015Z,51.70
2018-08-12T11:59:51.524Z,51.60
2018-08-12T12:02:18.157Z,51.70
2018-08-12T12:04:44.534Z,51.70
2018-08-12T12:07:11.004Z,51.50
2018-08-12T12:09:38.136Z,51.60
2018-08-12T12:12:04.834Z,51.60
2018-08-12T12:14:31.680Z,51.70
2018-08-12T12:16:58.189Z,51.60
2018-08-12T12:19:24.688Z,51.70
2018-08-12T12:21:51.148Z,51.60
2018-08-12T12:24:17.625Z,51.70
2018-08-12T12:26:44.402Z,51.80
2018-08-12T12:29:10.907Z,51.80
2018-08-12T12:31:37.398Z,52.30
2018-08-12T12:34:03.868Z,51.70
2018-08-12T12:36:30.372Z,51.80
2018-08-12T12:38:58.882Z,51.70
2018-08-12T12:41:25.938Z,51.70
2018-08-12T12:43:52.412Z,51.80
2018-08-12T12:46:18.914Z,51.80
2018-08-12T12:48:46.266Z,51.80
2018-08-12T12:51:12.768Z,52.40
2018-08-12T12:53:39.220Z,51.70
2018-08-12T12:56:05.676Z,51.80
2018-08-12T12:58:32.726Z,51.70
2018-08-12T13:00:59.180Z,51.80
2018-08-12T13:03:25.628Z,51.80
2018-08-12T13:05:52.094Z,51.80
2018-08-12T13:08:18.604Z,51.90
2018-08-12T13:10:45.082Z,51.80
2018-08-12T13:13:11.560Z,51.90
2018-08-12T13:15:38.016Z,52.00
2018-08-12T13:18:04.470Z,51.90
2018-08-12T13:20:30.973Z,51.90
2018-08-12T13:22:57.441Z,51.90
2018-08-12T13:25:23.918Z,52.00
2018-08-12T13:27:50.404Z,52.00
2018-08-12T13:30:17.846Z,51.90
2018-08-12T13:32:45.801Z,51.90
2018-08-12T13:35:12.870Z,51.90
2018-08-12T13:37:39.356Z,52.00
2018-08-12T13:40:05.842Z,51.90
2018-08-12T13:42:33.315Z,51.40
2018-08-12T13:44:59.808Z,52.00
2018-08-12T13:47:26.346Z,52.00
2018-08-12T13:52:31.444Z,52.00
2018-08-12T13:54:58.535Z,52.00
2018-08-12T13:57:25.669Z,52.00
2018-08-12T13:59:52.156Z,51.90
2018-08-12T14:02:18.655Z,51.90
2018-08-12T14:04:46.083Z,51.90
2018-08-12T14:07:12.558Z,52.00
2018-08-12T14:09:39.108Z,51.90
2018-08-12T14:12:05.617Z,51.90
2018-08-12T14:14:32.080Z,51.90
2018-08-12T14:16:58.623Z,52.00
2018-08-12T14:19:25.111Z,52.00
2018-08-12T14:21:51.608Z,51.90
2018-08-12T14:24:18.143Z,51.90
2018-08-12T14:26:44.622Z,51.80
2018-08-12T14:29:11.115Z,51.90
2018-08-12T14:31:37.591Z,51.90
2018-08-12T14:34:04.802Z,51.90
2018-08-12T14:36:31.373Z,51.70
2018-08-12T14:38:57.862Z,51.80
2018-08-12T14:41:24.369Z,51.90
2018-08-12T14:43:50.867Z,51.90
2018-08-12T14:46:17.344Z,51.90
2018-08-12T14:48:43.787Z,51.90
2018-08-12T14:51:10.289Z,51.80
2018-08-12T14:53:36.799Z,51.90
2018-08-12T14:56:03.299Z,51.90
2018-08-12T14:58:29.798Z,52.00
2018-08-12T15:00:56.797Z,51.90
2018-08-12T15:03:23.257Z,51.80
2018-08-12T15:05:49.700Z,51.90
2018-08-12T15:08:16.185Z,51.90
2018-08-12T15:10:42.652Z,51.70
2018-08-12T15:13:09.106Z,51.70
2018-08-12T15:15:35.565Z,51.90
2018-08-12T15:18:02.149Z,51.80
2018-08-12T15:20:28.663Z,51.90
2018-08-12T15:22:55.289Z,51.70
2018-08-12T15:25:21.743Z,51.80
2018-08-12T15:27:48.318Z,51.90
2018-08-12T15:30:15.392Z,51.90
2018-08-12T15:32:41.879Z,51.90
2018-08-12T15:35:09.126Z,51.90
2018-08-12T15:37:35.967Z,51.90
2018-08-12T15:40:02.464Z,52.00
2018-08-12T15:42:28.937Z,51.90
2018-08-12T15:44:55.421Z,52.00
2018-08-12T15:47:21.888Z,51.90
2018-08-12T15:49:48.397Z,51.90
2018-08-12T15:52:14.857Z,52.00
2018-08-12T15:54:41.296Z,51.90
2018-08-12T15:57:07.784Z,51.90
2018-08-12T15:59:34.222Z,52.00
2018-08-12T16:02:00.751Z,52.00
2018-08-12T16:04:27.202Z,52.60
2018-08-12T16:06:53.671Z,52.00
2018-08-12T16:09:20.168Z,52.00
2018-08-12T16:11:46.644Z,51.90
2018-08-12T16:14:13.189Z,52.00
2018-08-12T16:16:39.691Z,52.00
2018-08-12T16:19:06.218Z,52.00
2018-08-12T16:21:32.709Z,51.70
2018-08-12T16:23:59.431Z,52.00
2018-08-12T16:26:25.927Z,51.90
2018-08-12T16:28:53.415Z,52.00
2018-08-12T16:31:20.868Z,52.00
2018-08-12T16:33:47.343Z,52.10
2018-08-12T16:36:13.864Z,52.00
2018-08-12T16:38:40.482Z,52.00
2018-08-12T16:41:06.991Z,51.90
2018-08-12T16:43:33.498Z,52.00
2018-08-12T16:46:00.036Z,52.00
2018-08-12T16:48:26.563Z,52.10
2018-08-12T16:50:53.038Z,52.00
2018-08-12T16:53:19.527Z,52.00
2018-08-12T16:55:46.023Z,52.10
2018-08-12T16:58:12.490Z,52.10
2018-08-12T17:00:38.960Z,52.60
2018-08-12T17:03:05.423Z,51.90
2018-08-12T17:05:31.909Z,52.00
2018-08-12T17:07:58.353Z,52.00
2018-08-12T17:10:24.843Z,52.10
2018-08-12T17:12:51.333Z,52.10
2018-08-12T17:15:19.237Z,52.50
2018-08-12T17:17:46.414Z,52.00
2018-08-12T17:20:12.843Z,52.00
2018-08-12T17:22:39.664Z,52.10
2018-08-12T17:25:06.819Z,52.70
2018-08-12T17:27:33.357Z,52.10
2018-08-12T17:29:59.857Z,52.10
2018-08-12T17:32:27.045Z,52.00
2018-08-12T17:34:53.532Z,52.10
2018-08-12T17:37:20.017Z,52.10
2018-08-12T17:39:46.509Z,52.10
2018-08-12T17:42:13.501Z,52.10
2018-08-12T17:44:39.939Z,52.10
2018-08-12T17:47:06.452Z,52.10
2018-08-12T17:49:32.967Z,52.10
2018-08-12T17:51:59.479Z,52.10
2018-08-12T17:54:25.952Z,52.10
2018-08-12T17:56:52.424Z,52.10
2018-08-12T17:59:18.887Z,52.10
2018-08-12T18:01:45.403Z,52.10
2018-08-12T18:04:11.881Z,52.20
2018-08-12T18:06:38.372Z,52.20
2018-08-12T18:09:04.921Z,52.20
2018-08-12T18:11:32.176Z,52.70
2018-08-12T18:13:58.643Z,52.20
2018-08-12T18:16:25.237Z,52.20
2018-08-12T18:18:52.046Z,52.30
2018-08-12T18:21:18.543Z,52.20
2018-08-12T18:23:45.956Z,52.20
2018-08-12T18:26:12.452Z,52.20
2018-08-12T18:28:38.933Z,52.30
2018-08-12T18:31:05.399Z,52.20
2018-08-12T18:33:31.867Z,52.20
2018-08-12T18:35:58.323Z,52.20
2018-08-12T18:38:24.800Z,52.20
2018-08-12T18:40:51.305Z,52.20
2018-08-12T18:43:17.874Z,52.20
2018-08-12T18:45:44.367Z,52.20
2018-08-12T18:48:10.836Z,52.20
2018-08-12T18:50:37.348Z,52.20
2018-08-12T18:53:03.954Z,52.30
2018-08-12T18:55:30.454Z,52.20
2018-08-12T18:57:57.031Z,52.20
2018-08-12T19:00:23.532Z,52.30
2018-08-12T19:02:50.129Z,52.20
2018-08-12T19:05:16.694Z,52.20
2018-08-12T19:07:43.847Z,52.20
2018-08-12T19:10:11.686Z,52.20
2018-08-12T19:12:38.384Z,52.20
2018-08-12T19:15:04.850Z,52.20
2018-08-12T19:17:31.354Z,52.20
2018-08-12T19:19:57.922Z,52.20
2018-08-12T19:22:24.435Z,52.20
2018-08-12T19:24:50.925Z,52.30
2018-08-12T19:27:17.465Z,52.20
2018-08-12T19:29:43.998Z,52.30
2018-08-12T19:32:10.498Z,52.30
2018-08-12T19:34:37.049Z,52.20
2018-08-12T19:37:03.994Z,52.30
2018-08-12T19:39:30.464Z,52.30
2018-08-12T19:41:56.979Z,52.30
2018-08-12T19:44:23.491Z,52.30
2018-08-12T19:46:50.721Z,52.30
2018-08-12T19:49:17.262Z,52.30
2018-08-12T19:51:43.760Z,52.30
2018-08-12T19:54:10.256Z,52.30
2018-08-12T19:56:36.767Z,52.30
2018-08-12T19:59:03.246Z,52.30
2018-08-12T20:01:30.214Z,52.30
2018-08-12T20:03:56.713Z,52.30
2018-08-12T20:06:23.163Z,52.30
2018-08-12T20:08:49.622Z,52.30
2018-08-12T20:11:16.103Z,52.30
2018-08-12T20:13:42.586Z,52.30
2018-08-12T20:16:09.518Z,52.30
2018-08-12T20:18:36.604Z,52.30
2018-08-12T20:21:03.028Z,52.30
2018-08-12T20:23:34.608Z,52.30
2018-08-12T20:26:03.196Z,52.30
2018-08-12T20:28:29.727Z,52.30
2018-08-12T20:30:56.184Z,52.20
2018-08-12T20:33:22.659Z,52.30
2018-08-12T20:35:49.248Z,52.30
2018-08-12T20:38:15.726Z,52.20
2018-08-12T20:40:42.269Z,52.20
2018-08-12T20:43:08.766Z,52.20
2018-08-12T20:45:35.919Z,52.30
2018-08-12T20:48:03.148Z,52.30
2018-08-12T20:50:29.634Z,52.30
2018-08-12T20:52:56.872Z,52.30
2018-08-12T20:55:23.320Z,52.30
2018-08-12T20:57:49.787Z,52.40
2018-08-12T21:00:16.259Z,52.40
2018-08-12T21:02:42.732Z,52.30
2018-08-12T21:05:09.209Z,52.30
2018-08-12T21:07:35.829Z,52.30
2018-08-12T21:10:02.294Z,52.20
2018-08-12T21:12:28.773Z,52.30
2018-08-12T21:14:55.227Z,52.20
2018-08-12T21:17:21.697Z,52.30
2018-08-12T21:19:48.246Z,52.30
2018-08-12T21:22:15.227Z,52.30
2018-08-12T21:24:41.735Z,52.40
2018-08-12T21:27:08.217Z,52.20
2018-08-12T21:29:34.701Z,52.30
2018-08-12T21:32:01.168Z,52.30
2018-08-12T21:34:27.733Z,52.30
2018-08-12T21:36:54.229Z,52.30
2018-08-12T21:39:20.711Z,52.40
2018-08-12T21:41:47.197Z,52.30
2018-08-12T21:44:13.693Z,52.40
2018-08-12T21:46:40.172Z,52.30
2018-08-12T21:49:12.381Z,52.80
2018-08-12T21:51:38.883Z,52.20
2018-08-12T21:54:05.343Z,52.30
2018-08-12T21:56:32.155Z,52.20
2018-08-12T22:01:38.724Z,52.20
2018-08-12T22:04:05.222Z,52.30
2018-08-12T22:06:31.695Z,52.30
2018-08-12T22:08:58.969Z,52.20
2018-08-12T22:11:25.443Z,52.30
2018-08-12T22:13:51.919Z,52.20
2018-08-12T22:16:18.406Z,52.30
2018-08-12T22:18:45.235Z,52.30
2018-08-12T22:21:11.831Z,52.20
2018-08-12T22:23:38.278Z,52.20
2018-08-12T22:26:04.767Z,52.30
2018-08-12T22:28:31.237Z,52.30
2018-08-12T22:30:57.803Z,52.40
2018-08-12T22:33:24.328Z,52.40
2018-08-12T22:35:50.878Z,52.30
2018-08-12T22:38:17.329Z,52.30
2018-08-12T22:40:43.782Z,52.30
2018-08-12T22:43:10.225Z,52.30
2018-08-12T22:45:36.703Z,52.20
2018-08-12T22:48:03.167Z,52.30
2018-08-12T22:50:29.672Z,52.30
2018-08-12T22:52:56.117Z,52.30
2018-08-12T22:55:22.646Z,52.30
2018-08-12T22:57:49.129Z,52.30
2018-08-12T23:00:16.282Z,52.40
2018-08-12T23:02:42.716Z,52.40
2018-08-12T23:05:09.188Z,52.40
2018-08-12T23:07:35.672Z,52.40
2018-08-12T23:10:02.118Z,52.40
2018-08-12T23:12:28.638Z,52.30
2018-08-12T23:14:55.094Z,52.30
2018-08-12T23:17:21.603Z,52.30
2018-08-12T23:19:48.086Z,52.40
2018-08-12T23:22:14.530Z,52.40
2018-08-12T23:24:41.006Z,52.30
2018-08-12T23:27:07.455Z,52.40
2018-08-12T23:29:33.910Z,52.40
2018-08-12T23:32:00.371Z,52.50
2018-08-12T23:34:26.837Z,52.40
2018-08-12T23:36:53.284Z,52.40
2018-08-12T23:39:19.732Z,52.30
2018-08-12T23:41:46.183Z,52.40
2018-08-12T23:44:12.660Z,52.30
2018-08-12T23:46:39.154Z,52.40
2018-08-12T23:49:05.775Z,52.30
2018-08-12T23:51:32.254Z,52.40
2018-08-12T23:53:58.743Z,52.40
2018-08-12T23:56:25.228Z,52.40
2018-08-12T23:58:51.708Z,52.40
